createdAt,value
2022-09-27T00:00:52.747Z,12.30
2022-09-27T00:03:23.004Z,12.40
2022-09-27T00:05:53.232Z,12.30
2022-09-27T00:08:23.770Z,12.30
2022-09-27T00:11:02.285Z,12.20
2022-09-27T00:13:32.614Z,12.30
2022-09-27T00:16:07.766Z,12.30
2022-09-27T00:18:38.362Z,12.30
2022-09-27T00:21:10.415Z,12.30
2022-09-27T00:23:41.905Z,12.30
2022-09-27T00:26:15.709Z,12.30
2022-09-27T00:28:46.156Z,12.40
2022-09-27T00:31:25.278Z,12.40
2022-09-27T00:33:56.566Z,12.40
2022-09-27T00:36:27.397Z,12.50
2022-09-27T00:39:00.067Z,12.40
2022-09-27T00:41:32.525Z,12.30
2022-09-27T00:44:05.072Z,12.40
2022-09-27T00:46:43.296Z,12.40
2022-09-27T00:49:22.077Z,12.30
2022-09-27T00:51:53.414Z,12.40
2022-09-27T00:54:25.592Z,12.40
2022-09-27T00:56:56.489Z,12.40
2022-09-27T00:59:30.725Z,12.30
2022-09-27T01:02:04.953Z,12.40
2022-09-27T01:04:36.510Z,12.40
2022-09-27T01:07:06.875Z,12.40
2022-09-27T01:09:38.026Z,12.40
2022-09-27T01:12:19.529Z,12.30
2022-09-27T01:15:08.393Z,12.40
2022-09-27T01:17:55.842Z,12.50
2022-09-27T01:20:53.331Z,12.30
2022-09-27T01:24:01.380Z,12.30
2022-09-27T01:26:58.090Z,12.30
2022-09-27T01:29:37.662Z,12.40
2022-09-27T01:32:18.596Z,12.10
2022-09-27T01:34:56.084Z,12.10
2022-09-27T01:37:32.119Z,12.10
2022-09-27T01:40:10.482Z,12.10
2022-09-27T01:43:18.103Z,12.10
2022-09-27T01:45:52.389Z,12.10
2022-09-27T01:48:47.038Z,12.10
2022-09-27T01:51:28.448Z,12.20
2022-09-27T01:54:05.533Z,12.20
2022-09-27T01:57:10.894Z,12.10
2022-09-27T01:59:48.117Z,12.10
2022-09-27T02:02:58.153Z,12.00
2022-09-27T02:05:35.097Z,12.10
2022-09-27T02:08:23.635Z,12.10
2022-09-27T02:10:59.498Z,12.00
2022-09-27T02:13:40.809Z,12.10
2022-09-27T02:16:52.484Z,12.10
2022-09-27T02:19:42.268Z,12.10
2022-09-27T02:22:20.982Z,12.00
2022-09-27T02:24:57.609Z,12.00
2022-09-27T02:27:32.230Z,12.00
2022-09-27T02:30:08.409Z,12.00
2022-09-27T02:32:39.678Z,12.00
2022-09-27T02:35:16.871Z,12.00
2022-09-27T02:37:50.177Z,12.00
2022-09-27T02:40:21.514Z,12.00
2022-09-27T02:42:52.074Z,12.00
2022-09-27T02:45:23.426Z,12.00
2022-09-27T02:48:04.478Z,12.00
2022-09-27T02:50:58.003Z,12.10
2022-09-27T02:53:47.368Z,11.90
2022-09-27T02:57:03.915Z,12.00
2022-09-27T02:59:59.748Z,12.00
2022-09-27T03:02:56.677Z,12.00
2022-09-27T03:05:39.756Z,12.00
2022-09-27T03:08:10.852Z,12.00
2022-09-27T03:10:45.315Z,12.10
2022-09-27T03:13:15.796Z,12.00
2022-09-27T03:15:46.540Z,12.10
2022-09-27T03:18:23.364Z,12.00
2022-09-27T03:21:12.509Z,12.00
2022-09-27T03:23:43.155Z,12.10
2022-09-27T03:26:16.217Z,12.10
2022-09-27T03:28:46.596Z,12.00
2022-09-27T03:31:17.643Z,11.90
2022-09-27T03:33:56.032Z,12.10
2022-09-27T03:36:26.779Z,12.00
2022-09-27T03:38:57.554Z,12.00
2022-09-27T03:41:30.476Z,12.00
2022-09-27T03:44:00.823Z,11.90
2022-09-27T03:46:31.420Z,11.90
2022-09-27T03:49:02.152Z,11.90
2022-09-27T03:51:32.628Z,11.90
2022-09-27T03:54:03.088Z,11.90
2022-09-27T03:56:36.049Z,11.90
2022-09-27T03:59:06.724Z,11.90
2022-09-27T04:01:57.025Z,11.90
2022-09-27T04:04:47.351Z,11.90
2022-09-27T04:07:18.087Z,11.90
2022-09-27T04:09:49.271Z,12.00
2022-09-27T04:12:24.017Z,11.90
2022-09-27T04:14:55.434Z,12.00
2022-09-27T04:17:46.078Z,11.90
2022-09-27T04:20:36.815Z,11.90
2022-09-27T04:23:10.995Z,11.90
2022-09-27T04:25:45.019Z,11.90
2022-09-27T04:28:28.231Z,11.90
2022-09-27T04:30:58.829Z,11.80
2022-09-27T04:33:48.018Z,11.80
2022-09-27T04:36:27.760Z,11.80
2022-09-27T04:39:08.032Z,11.80
2022-09-27T04:41:41.195Z,11.80
2022-09-27T04:44:14.137Z,11.70
2022-09-27T04:46:48.329Z,11.70
2022-09-27T04:49:18.824Z,11.70
2022-09-27T04:51:49.208Z,11.70
2022-09-27T04:54:19.496Z,11.70
2022-09-27T04:57:07.624Z,11.80
2022-09-27T04:59:40.830Z,11.70
2022-09-27T05:02:11.394Z,11.70
2022-09-27T05:05:00.782Z,11.70
2022-09-27T05:07:38.372Z,11.70
2022-09-27T05:10:13.782Z,11.70
2022-09-27T05:12:44.240Z,11.70
2022-09-27T05:15:20.928Z,11.70
2022-09-27T05:18:10.123Z,11.70
2022-09-27T05:21:00.006Z,11.70
2022-09-27T05:23:36.485Z,11.70
2022-09-27T05:26:07.916Z,11.70
2022-09-27T05:28:38.722Z,11.80
2022-09-27T05:31:13.545Z,11.70
2022-09-27T05:33:44.713Z,11.70
2022-09-27T05:36:33.539Z,11.70
2022-09-27T05:39:03.919Z,11.70
2022-09-27T05:41:34.845Z,11.70
2022-09-27T05:44:06.119Z,11.70
2022-09-27T05:46:40.897Z,11.70
2022-09-27T05:49:11.526Z,11.70
2022-09-27T05:51:42.315Z,11.80
2022-09-27T05:54:12.945Z,11.70
2022-09-27T05:56:43.381Z,11.70
2022-09-27T05:59:22.337Z,11.70
2022-09-27T06:02:15.320Z,11.70
2022-09-27T06:04:45.742Z,11.70
2022-09-27T06:07:36.331Z,11.70
2022-09-27T06:10:10.748Z,11.70
2022-09-27T06:12:41.837Z,11.60
2022-09-27T06:15:28.228Z,11.60
2022-09-27T06:18:05.523Z,11.60
2022-09-27T06:20:37.504Z,11.70
2022-09-27T06:23:09.208Z,11.70
2022-09-27T06:25:41.317Z,11.60
2022-09-27T06:28:21.481Z,11.60
2022-09-27T06:30:54.487Z,11.70
2022-09-27T06:33:32.388Z,11.70
2022-09-27T06:36:06.135Z,11.70
2022-09-27T06:38:38.594Z,11.70
2022-09-27T06:41:20.669Z,11.70
2022-09-27T06:44:09.500Z,11.70
2022-09-27T06:47:02.902Z,11.70
2022-09-27T06:49:52.923Z,11.70
2022-09-27T06:52:23.229Z,11.80
2022-09-27T06:54:53.645Z,11.70
2022-09-27T06:57:36.552Z,11.70
2022-09-27T07:00:20.913Z,11.60
2022-09-27T07:03:09.952Z,11.70
2022-09-27T07:06:03.768Z,11.70
2022-09-27T07:08:54.149Z,11.70
2022-09-27T07:11:26.640Z,11.60
2022-09-27T07:13:58.179Z,11.70
2022-09-27T07:16:29.013Z,11.70
2022-09-27T07:18:59.322Z,11.50
2022-09-27T07:21:33.381Z,11.70
2022-09-27T07:24:04.340Z,11.60
2022-09-27T07:26:35.277Z,11.70
2022-09-27T07:29:08.046Z,11.60
2022-09-27T07:31:39.750Z,11.60
2022-09-27T07:34:11.759Z,11.60
2022-09-27T07:36:44.754Z,11.60
2022-09-27T07:39:15.855Z,11.60
2022-09-27T07:41:47.510Z,11.50
2022-09-27T07:44:18.102Z,11.60
2022-09-27T07:47:11.250Z,11.50
2022-09-27T07:49:59.939Z,11.50
2022-09-27T07:52:51.369Z,11.60
2022-09-27T07:55:39.429Z,11.80
2022-09-27T07:58:16.778Z,11.80
2022-09-27T08:00:47.690Z,11.80
2022-09-27T08:03:20.139Z,11.90
2022-09-27T08:05:51.438Z,11.90
2022-09-27T08:08:24.553Z,12.00
2022-09-27T08:11:02.043Z,12.00
2022-09-27T08:13:32.523Z,11.90
2022-09-27T08:16:05.361Z,12.00
2022-09-27T08:18:52.498Z,11.90
2022-09-27T08:22:04.007Z,11.90
2022-09-27T08:24:44.078Z,11.90
2022-09-27T08:27:43.313Z,11.90
2022-09-27T08:30:33.939Z,11.90
2022-09-27T08:33:05.631Z,11.80
2022-09-27T08:35:36.447Z,11.90
2022-09-27T08:38:07.953Z,11.90
2022-09-27T08:40:54.763Z,11.90
2022-09-27T08:43:37.807Z,11.90
2022-09-27T08:46:19.583Z,12.00
2022-09-27T08:48:56.017Z,12.00
2022-09-27T08:51:33.176Z,11.90
2022-09-27T08:54:09.203Z,11.90
2022-09-27T08:56:42.344Z,12.00
2022-09-27T08:59:21.321Z,12.00
2022-09-27T09:01:52.686Z,12.00
2022-09-27T09:04:40.811Z,12.00
2022-09-27T09:07:19.270Z,11.90
2022-09-27T09:09:55.319Z,11.90
2022-09-27T09:12:48.838Z,12.00
2022-09-27T09:15:59.926Z,11.90
2022-09-27T09:18:52.725Z,11.90
2022-09-27T09:21:51.074Z,11.90
2022-09-27T09:24:35.481Z,11.90
2022-09-27T09:27:10.977Z,12.00
2022-09-27T09:30:05.731Z,11.80
2022-09-27T09:32:54.098Z,11.80
2022-09-27T09:35:29.102Z,11.80
2022-09-27T09:38:03.400Z,11.90
2022-09-27T09:40:39.103Z,11.70
2022-09-27T09:43:18.209Z,11.80
2022-09-27T09:45:57.809Z,11.80
2022-09-27T09:48:37.288Z,11.80
2022-09-27T09:51:11.217Z,11.80
2022-09-27T09:53:48.126Z,11.90
2022-09-27T09:56:28.151Z,11.90
2022-09-27T09:59:02.468Z,11.90
2022-09-27T10:01:46.427Z,11.90
2022-09-27T10:04:23.234Z,12.10
2022-09-27T10:06:56.074Z,12.10
2022-09-27T10:09:30.881Z,12.00
2022-09-27T10:12:31.746Z,12.10
2022-09-27T10:15:06.503Z,12.10
2022-09-27T10:17:45.046Z,12.20
2022-09-27T10:20:34.668Z,12.20
2022-09-27T10:23:09.201Z,12.30
2022-09-27T10:25:53.929Z,12.30
2022-09-27T10:28:42.691Z,12.30
2022-09-27T10:31:16.045Z,12.30
2022-09-27T10:34:02.891Z,12.40
2022-09-27T10:36:39.130Z,12.40
2022-09-27T10:39:23.990Z,12.60
2022-09-27T10:41:58.365Z,12.50
2022-09-27T10:44:43.285Z,12.60
2022-09-27T10:47:27.273Z,12.60
2022-09-27T10:50:49.575Z,12.70
2022-09-27T10:53:26.099Z,12.70
2022-09-27T10:56:08.561Z,12.80
2022-09-27T10:58:41.135Z,12.90
2022-09-27T11:01:16.396Z,12.90
2022-09-27T11:04:05.845Z,13.00
2022-09-27T11:06:41.094Z,13.00
2022-09-27T11:09:24.334Z,13.10
2022-09-27T11:12:10.397Z,13.20
2022-09-27T11:14:41.841Z,13.30
2022-09-27T11:17:19.116Z,13.20
2022-09-27T11:20:25.814Z,13.20
2022-09-27T11:23:43.364Z,13.50
2022-09-27T11:26:37.491Z,13.60
2022-09-27T11:29:21.697Z,13.50
2022-09-27T11:32:32.711Z,13.80
2022-09-27T11:35:18.258Z,13.90
2022-09-27T11:37:55.403Z,14.00
2022-09-27T11:40:34.615Z,13.50
2022-09-27T11:43:29.655Z,13.10
2022-09-27T11:46:19.296Z,12.80
2022-09-27T11:49:04.617Z,12.60
2022-09-27T11:51:49.707Z,12.60
2022-09-27T11:54:43.431Z,12.70
2022-09-27T11:57:26.575Z,12.70
2022-09-27T12:00:14.092Z,12.80
2022-09-27T12:03:18.163Z,12.90
2022-09-27T12:06:07.499Z,12.90
2022-09-27T12:08:53.731Z,12.90
2022-09-27T12:11:30.648Z,12.90
2022-09-27T12:14:08.514Z,13.00
2022-09-27T12:16:42.072Z,13.00
2022-09-27T12:19:21.717Z,13.20
2022-09-27T12:22:07.394Z,13.30
2022-09-27T12:24:42.730Z,13.40
2022-09-27T12:27:35.512Z,13.40
2022-09-27T12:30:10.035Z,13.40
2022-09-27T12:32:52.039Z,13.30
2022-09-27T12:35:27.789Z,13.50
2022-09-27T12:38:05.615Z,13.40
2022-09-27T12:40:40.302Z,13.60
2022-09-27T12:43:19.543Z,13.60
2022-09-27T12:46:40.417Z,13.80
2022-09-27T12:49:17.812Z,13.80
2022-09-27T12:51:53.103Z,13.60
2022-09-27T12:54:41.391Z,13.90
2022-09-27T12:57:23.626Z,14.10
2022-09-27T13:00:08.604Z,13.80
2022-09-27T13:03:16.183Z,13.70
2022-09-27T13:06:24.470Z,13.90
2022-09-27T13:09:31.892Z,14.20
2022-09-27T13:12:11.091Z,14.40
2022-09-27T13:14:49.949Z,14.40
2022-09-27T13:17:50.952Z,14.30
2022-09-27T13:20:49.557Z,14.10
2022-09-27T13:24:03.846Z,14.10
2022-09-27T13:26:51.262Z,13.90
2022-09-27T13:29:34.009Z,13.50
2022-09-27T13:32:28.491Z,13.50
2022-09-27T13:35:22.291Z,13.50
2022-09-27T13:38:25.902Z,13.60
2022-09-27T13:40:57.675Z,13.60
2022-09-27T13:43:57.749Z,13.60
2022-09-27T13:46:40.866Z,13.70
2022-09-27T13:49:20.919Z,13.80
2022-09-27T13:52:23.557Z,13.90
2022-09-27T13:55:43.306Z,14.00
2022-09-27T13:58:49.053Z,14.00
2022-09-27T14:01:45.582Z,13.90
2022-09-27T14:04:22.136Z,13.90
2022-09-27T14:06:55.836Z,13.90
2022-09-27T14:09:29.749Z,14.00
2022-09-27T14:12:14.950Z,13.90
2022-09-27T14:14:47.503Z,14.00
2022-09-27T14:17:19.277Z,14.00
2022-09-27T14:19:50.851Z,14.00
2022-09-27T14:22:25.021Z,14.10
2022-09-27T14:25:03.280Z,14.10
2022-09-27T14:27:41.761Z,14.10
2022-09-27T14:30:32.327Z,14.20
2022-09-27T14:33:31.676Z,14.10
2022-09-27T14:36:40.007Z,14.10
2022-09-27T14:39:24.621Z,14.10
2022-09-27T14:41:57.739Z,14.10
2022-09-27T14:44:31.586Z,14.10
2022-09-27T14:47:13.800Z,14.20
2022-09-27T14:49:50.602Z,14.10
2022-09-27T14:52:27.856Z,14.00
2022-09-27T14:55:03.223Z,14.00
2022-09-27T14:57:36.831Z,14.10
2022-09-27T15:00:21.560Z,14.10
2022-09-27T15:02:53.343Z,14.00
2022-09-27T15:05:26.547Z,14.00
2022-09-27T15:07:58.388Z,14.00
2022-09-27T15:10:31.766Z,14.00
2022-09-27T15:13:04.792Z,13.90
2022-09-27T15:15:40.108Z,14.00
2022-09-27T15:18:35.909Z,14.10
2022-09-27T15:21:07.613Z,13.80
2022-09-27T15:23:41.072Z,13.80
2022-09-27T15:26:16.051Z,13.60
2022-09-27T15:28:48.370Z,13.60
2022-09-27T15:31:22.400Z,13.50
2022-09-27T15:33:57.849Z,13.50
2022-09-27T15:36:53.843Z,13.50
2022-09-27T15:39:30.237Z,13.50
2022-09-27T15:42:05.974Z,13.60
2022-09-27T15:44:48.903Z,13.70
2022-09-27T15:47:49.139Z,13.60
2022-09-27T15:50:37.777Z,13.60
2022-09-27T15:53:09.437Z,13.70
2022-09-27T15:55:45.320Z,13.80
2022-09-27T15:58:19.468Z,13.80
2022-09-27T16:00:57.429Z,13.80
2022-09-27T16:03:29.611Z,13.80
2022-09-27T16:06:04.300Z,13.70
2022-09-27T16:08:34.601Z,13.70
2022-09-27T16:11:05.826Z,13.90
2022-09-27T16:13:36.154Z,13.80
2022-09-27T16:16:06.627Z,13.80
2022-09-27T16:18:37.020Z,13.80
2022-09-27T16:21:10.303Z,13.80
2022-09-27T16:23:40.608Z,13.70
2022-09-27T16:26:11.071Z,13.80
2022-09-27T16:28:41.337Z,13.80
2022-09-27T16:31:12.372Z,13.80
2022-09-27T16:33:42.691Z,13.80
2022-09-27T16:36:20.129Z,13.90
2022-09-27T16:38:54.110Z,13.80
2022-09-27T16:41:25.347Z,13.90
2022-09-27T16:43:55.853Z,13.90
2022-09-27T16:46:26.097Z,13.80
2022-09-27T16:48:58.595Z,13.80
2022-09-27T16:51:44.279Z,13.80
2022-09-27T16:54:16.018Z,13.80
2022-09-27T16:56:50.238Z,13.80
2022-09-27T16:59:22.834Z,13.70
2022-09-27T17:01:56.963Z,13.70
2022-09-27T17:04:27.829Z,13.60
2022-09-27T17:07:01.216Z,13.70
2022-09-27T17:09:31.514Z,13.80
2022-09-27T17:12:02.104Z,13.60
2022-09-27T17:14:32.621Z,13.70
2022-09-27T17:17:02.880Z,13.70
2022-09-27T17:19:33.159Z,13.60
2022-09-27T17:22:06.542Z,13.60
2022-09-27T17:24:37.371Z,13.60
2022-09-27T17:27:07.665Z,13.70
2022-09-27T17:29:38.022Z,13.60
2022-09-27T17:32:09.063Z,13.60
2022-09-27T17:34:43.601Z,13.60
2022-09-27T17:37:16.438Z,13.50
2022-09-27T17:39:46.949Z,13.60
2022-09-27T17:42:19.017Z,13.60
2022-09-27T17:44:49.358Z,13.60
2022-09-27T17:47:32.010Z,13.50
2022-09-27T17:50:14.675Z,13.60
2022-09-27T17:52:47.509Z,13.40
2022-09-27T17:55:18.081Z,13.10
2022-09-27T17:57:50.497Z,13.10
2022-09-27T18:00:21.847Z,13.10
2022-09-27T18:02:52.845Z,13.10
2022-09-27T18:05:23.307Z,12.90
2022-09-27T18:07:56.267Z,13.10
2022-09-27T18:10:27.727Z,13.00
2022-09-27T18:12:58.885Z,13.00
2022-09-27T18:15:29.471Z,13.00
2022-09-27T18:17:59.768Z,12.80
2022-09-27T18:20:30.192Z,12.80
2022-09-27T18:23:03.112Z,12.80
2022-09-27T18:25:40.455Z,12.70
2022-09-27T18:28:10.731Z,12.70
2022-09-27T18:30:40.964Z,12.70
2022-09-27T18:33:11.328Z,12.70
2022-09-27T18:35:41.578Z,12.60
2022-09-27T18:38:14.504Z,12.60
2022-09-27T18:40:56.284Z,12.60
2022-09-27T18:43:27.683Z,12.70
2022-09-27T18:46:12.233Z,12.70
2022-09-27T18:48:48.777Z,12.80
2022-09-27T18:51:20.533Z,12.70
2022-09-27T18:53:57.851Z,12.80
2022-09-27T18:56:28.945Z,12.80
2022-09-27T18:59:00.097Z,12.80
2022-09-27T19:01:30.611Z,12.80
2022-09-27T19:04:00.911Z,12.80
2022-09-27T19:06:31.164Z,12.70
2022-09-27T19:09:04.848Z,12.70
2022-09-27T19:11:35.908Z,12.70
2022-09-27T19:14:06.419Z,12.70
2022-09-27T19:16:37.403Z,12.70
2022-09-27T19:19:07.915Z,12.70
2022-09-27T19:21:38.183Z,12.60
2022-09-27T19:24:11.919Z,12.60
2022-09-27T19:26:42.353Z,12.60
2022-09-27T19:29:13.121Z,12.60
2022-09-27T19:31:44.800Z,12.50
2022-09-27T19:34:15.504Z,12.60
2022-09-27T19:36:45.805Z,12.50
2022-09-27T19:39:18.733Z,12.40
2022-09-27T19:41:49.105Z,12.50
2022-09-27T19:44:19.359Z,12.60
2022-09-27T19:46:50.289Z,12.60
2022-09-27T19:49:20.665Z,12.60
2022-09-27T19:51:52.261Z,12.60
2022-09-27T19:54:25.355Z,12.70
2022-09-27T19:56:55.557Z,12.60
2022-09-27T19:59:25.869Z,12.60
2022-09-27T20:01:59.149Z,12.50
2022-09-27T20:04:29.547Z,12.50
2022-09-27T20:06:59.887Z,12.50
2022-09-27T20:09:32.809Z,12.60
2022-09-27T20:12:03.212Z,12.60
2022-09-27T20:14:33.647Z,12.60
2022-09-27T20:17:04.060Z,12.60
2022-09-27T20:19:34.435Z,12.60
2022-09-27T20:22:04.791Z,12.60
2022-09-27T20:24:37.765Z,12.50
2022-09-27T20:27:08.151Z,12.50
2022-09-27T20:29:38.439Z,12.60
2022-09-27T20:32:26.674Z,12.40
2022-09-27T20:34:58.695Z,12.40
2022-09-27T20:37:28.972Z,12.40
2022-09-27T20:40:01.944Z,12.40
2022-09-27T20:42:32.754Z,12.40
2022-09-27T20:45:03.050Z,12.40
2022-09-27T20:47:33.377Z,12.40
2022-09-27T20:50:03.638Z,12.40
2022-09-27T20:52:33.993Z,12.40
2022-09-27T20:55:07.562Z,12.40
2022-09-27T20:57:56.306Z,12.30
2022-09-27T21:00:27.418Z,12.40
2022-09-27T21:02:57.721Z,12.30
2022-09-27T21:05:27.995Z,12.30
2022-09-27T21:07:58.601Z,12.30
2022-09-27T21:10:31.489Z,12.20
2022-09-27T21:13:01.886Z,12.20
2022-09-27T21:15:34.208Z,12.30
2022-09-27T21:18:04.658Z,12.30
2022-09-27T21:20:35.509Z,12.30
2022-09-27T21:23:05.930Z,12.30
2022-09-27T21:25:38.824Z,12.30
2022-09-27T21:28:09.346Z,12.30
2022-09-27T21:30:39.612Z,12.30
2022-09-27T21:33:09.906Z,12.30
2022-09-27T21:35:40.266Z,12.40
2022-09-27T21:38:10.702Z,12.30
2022-09-27T21:40:43.725Z,12.30
2022-09-27T21:43:14.045Z,12.30
2022-09-27T21:45:44.354Z,12.40
2022-09-27T21:48:14.710Z,12.40
2022-09-27T21:50:45.000Z,12.30
2022-09-27T21:53:15.261Z,12.30
2022-09-27T21:55:57.014Z,12.50
2022-09-27T21:58:27.516Z,12.40
2022-09-27T22:01:00.134Z,12.20
2022-09-27T22:03:30.492Z,12.30
2022-09-27T22:06:00.649Z,12.40
2022-09-27T22:08:32.099Z,12.40
2022-09-27T22:11:04.928Z,12.30
2022-09-27T22:13:35.931Z,12.40
2022-09-27T22:16:08.575Z,12.30
2022-09-27T22:18:41.505Z,12.20
2022-09-27T22:21:14.543Z,12.30
2022-09-27T22:23:45.667Z,12.30
2022-09-27T22:26:20.412Z,12.30
2022-09-27T22:28:51.311Z,12.20
2022-09-27T22:31:22.600Z,12.30
2022-09-27T22:33:54.031Z,12.20
2022-09-27T22:36:24.688Z,12.20
2022-09-27T22:38:55.371Z,12.30
2022-09-27T22:41:29.511Z,12.20
2022-09-27T22:44:01.435Z,12.30
2022-09-27T22:46:31.654Z,12.20
2022-09-27T22:49:02.121Z,12.30
2022-09-27T22:51:32.837Z,12.30
2022-09-27T22:54:03.163Z,12.30
2022-09-27T22:56:36.151Z,12.20
2022-09-27T22:59:06.886Z,12.30
2022-09-27T23:01:37.123Z,12.30
2022-09-27T23:04:07.561Z,12.30
2022-09-27T23:06:40.129Z,12.30
2022-09-27T23:09:11.376Z,12.40
2022-09-27T23:11:44.178Z,12.30
2022-09-27T23:14:16.032Z,12.20
2022-09-27T23:16:46.316Z,12.20
2022-09-27T23:19:17.294Z,12.20
2022-09-27T23:21:48.252Z,12.20
2022-09-27T23:24:19.210Z,12.30
2022-09-27T23:27:15.859Z,12.30
2022-09-27T23:29:46.728Z,12.20
2022-09-27T23:32:16.923Z,12.20
2022-09-27T23:34:47.235Z,12.20
2022-09-27T23:37:17.665Z,12.20
2022-09-27T23:39:48.452Z,12.20
2022-09-27T23:42:21.291Z,12.20
2022-09-27T23:44:53.769Z,12.20
2022-09-27T23:47:24.099Z,12.20
2022-09-27T23:49:54.487Z,12.30
2022-09-27T23:52:24.648Z,12.20
2022-09-27T23:54:55.074Z,12.20
2022-09-27T23:57:28.005Z,12.20
2022-09-27T23:59:58.322Z,12.10
